Time;durP1;ratioP1;P1;durP2;ratioP2;P2;SDS_P1;SDS_P2;PMS_P1;PMS_P2;Temp;Humidity;BMP_temperature;BMP_pressure;BME280_temperature;BME280_humidity;BME280_pressure;Samples;Min_cycle;Max_cycle;Signal;HPM_P1;HPM_P2
2023/11/24 00:00:15;;;;;;;7.03;5.35;;;7.70;89.00;;;;;;6251274;28;20049;-81
2023/11/24 00:03:16;;;;;;;7.45;5.15;;;7.80;89.20;;;;;;6246087;28;20128;-79
2023/11/24 00:06:19;;;;;;;7.65;6.35;;;7.80;89.40;;;;;;6245770;28;20041;-81
2023/11/24 00:09:21;;;;;;;7.75;6.07;;;7.80;89.60;;;;;;6248945;28;20430;-81
2023/11/24 00:12:23;;;;;;;8.73;5.90;;;7.80;89.80;;;;;;6249018;28;20056;-81
2023/11/24 00:15:26;;;;;;;8.07;5.45;;;7.80;89.90;;;;;;6248737;28;20041;-80
2023/11/24 00:18:28;;;;;;;6.88;5.28;;;7.90;90.00;;;;;;6243656;28;20117;-81
2023/11/24 00:21:30;;;;;;;7.10;5.43;;;7.90;90.10;;;;;;6248628;28;20053;-81
2023/11/24 00:24:32;;;;;;;7.53;5.32;;;7.90;90.10;;;;;;6249855;28;20056;-79
2023/11/24 00:27:33;;;;;;;9.10;6.47;;;7.90;90.10;;;;;;6249247;28;20426;-79
2023/11/24 00:30:36;;;;;;;6.05;5.38;;;7.90;90.30;;;;;;6245442;28;20414;-80
2023/11/24 00:33:38;;;;;;;13.63;5.95;;;7.90;90.20;;;;;;6247398;28;20055;-80
2023/11/24 00:36:40;;;;;;;8.82;5.57;;;8.00;90.20;;;;;;6246587;28;20056;-80
2023/11/24 00:39:42;;;;;;;7.20;5.93;;;8.00;90.30;;;;;;6249260;28;20059;-81
2023/11/24 00:42:44;;;;;;;7.63;5.43;;;8.00;90.30;;;;;;6254528;28;20057;-81
2023/11/24 00:45:47;;;;;;;8.45;6.65;;;8.00;90.30;;;;;;6253643;28;20068;-80
2023/11/24 00:48:49;;;;;;;8.35;5.97;;;8.00;90.30;;;;;;6252717;28;20053;-82
2023/11/24 00:51:51;;;;;;;8.18;5.57;;;8.10;90.40;;;;;;6254825;28;20494;-80
2023/11/24 00:54:54;;;;;;;7.85;5.45;;;8.10;90.40;;;;;;6253843;28;20486;-79
2023/11/24 00:57:55;;;;;;;6.60;4.45;;;8.10;90.30;;;;;;6252855;28;20049;-79
2023/11/24 01:01:00;;;;;;;7.88;6.45;;;8.20;90.30;;;;;;6253058;28;20060;-81
2023/11/24 01:04:02;;;;;;;10.35;4.85;;;8.20;90.20;;;;;;6253960;28;20046;-80
2023/11/24 01:07:04;;;;;;;9.57;6.00;;;8.20;90.20;;;;;;6252164;28;20054;-80
2023/11/24 01:10:07;;;;;;;7.53;4.57;;;8.30;90.20;;;;;;6252591;28;20050;-81
2023/11/24 01:13:09;;;;;;;8.05;4.80;;;8.30;90.20;;;;;;6253045;28;20479;-81
2023/11/24 01:16:12;;;;;;;7.60;4.78;;;8.30;90.10;;;;;;6253714;28;20368;-82
2023/11/24 01:19:14;;;;;;;5.47;3.92;;;8.40;90.10;;;;;;6252623;28;20041;-79
2023/11/24 01:22:16;;;;;;;8.45;4.85;;;8.40;90.00;;;;;;6252791;28;20052;-80
2023/11/24 01:25:17;;;;;;;7.75;4.82;;;8.40;89.90;;;;;;6252824;28;20041;-79
2023/11/24 01:28:19;;;;;;;7.68;6.50;;;8.40;90.20;;;;;;6253309;28;20050;-81
2023/11/24 01:31:23;;;;;;;5.15;4.32;;;8.40;89.70;;;;;;6253052;28;20059;-80
2023/11/24 01:34:24;;;;;;;4.57;3.50;;;8.50;89.50;;;;;;6253194;28;20052;-80
2023/11/24 01:37:27;;;;;;;7.55;5.03;;;8.50;89.40;;;;;;6253566;28;20052;-81
2023/11/24 01:40:28;;;;;;;4.90;3.90;;;8.50;89.30;;;;;;6252717;28;20054;-81
2023/11/24 01:43:30;;;;;;;5.95;3.97;;;8.50;89.00;;;;;;6253738;28;20050;-81
2023/11/24 01:46:33;;;;;;;5.68;4.18;;;8.60;88.90;;;;;;6253544;28;20053;-81
2023/11/24 01:49:35;;;;;;;6.32;4.00;;;8.60;89.00;;;;;;6253330;28;20554;-81
2023/11/24 01:52:39;;;;;;;4.65;4.18;;;8.60;88.70;;;;;;6252899;28;20053;-80
2023/11/24 01:55:41;;;;;;;8.00;3.67;;;8.60;88.60;;;;;;6253843;28;20421;-80
2023/11/24 01:58:43;;;;;;;5.13;4.35;;;8.70;88.40;;;;;;6252205;28;20128;-80
2023/11/24 02:01:46;;;;;;;4.45;2.95;;;8.70;88.20;;;;;;6252964;28;20049;-80
2023/11/24 02:04:48;;;;;;;7.20;3.35;;;8.60;88.10;;;;;;6252147;28;20049;-81
2023/11/24 02:07:50;;;;;;;5.07;3.75;;;8.60;87.90;;;;;;6252645;28;20557;-80
2023/11/24 02:10:52;;;;;;;7.28;4.20;;;8.60;88.00;;;;;;6252015;28;20050;-81
2023/11/24 02:13:54;;;;;;;3.97;3.50;;;8.60;88.00;;;;;;6252427;28;20060;-81
2023/11/24 02:16:59;;;;;;;5.35;3.38;;;8.60;88.20;;;;;;6252063;28;20052;-80
2023/11/24 02:20:05;;;;;;;4.93;3.53;;;8.50;88.30;;;;;;6251964;28;20048;-81
2023/11/24 02:23:08;;;;;;;4.45;3.70;;;8.50;88.50;;;;;;6248241;28;20053;-81
2023/11/24 02:26:10;;;;;;;6.47;5.28;;;8.40;88.60;;;;;;6251796;28;20051;-79
2023/11/24 02:29:12;;;;;;;8.68;3.97;;;8.40;88.80;;;;;;6251622;28;20049;-79
2023/11/24 02:32:14;;;;;;;4.88;3.88;;;8.40;89.00;;;;;;6252358;28;20053;-80
2023/11/24 02:35:16;;;;;;;7.78;4.30;;;8.40;89.10;;;;;;6251562;28;20041;-80
2023/11/24 02:38:19;;;;;;;8.35;4.35;;;8.40;89.20;;;;;;6251520;28;20052;-80
2023/11/24 02:41:21;;;;;;;5.57;4.68;;;8.40;89.30;;;;;;6251823;28;20042;-81
2023/11/24 02:44:23;;;;;;;4.78;3.75;;;8.30;89.30;;;;;;6252400;28;20052;-81
2023/11/24 02:47:25;;;;;;;5.15;4.50;;;8.30;89.40;;;;;;6251628;28;20045;-80
2023/11/24 02:50:27;;;;;;;4.53;4.03;;;8.20;89.50;;;;;;6250872;28;20064;-80
2023/11/24 02:53:30;;;;;;;5.43;3.60;;;8.20;89.70;;;;;;6251064;28;20076;-79
2023/11/24 02:56:31;;;;;;;4.90;3.50;;;8.20;90.00;;;;;;6251463;28;20072;-81
2023/11/24 02:59:34;;;;;;;6.47;4.05;;;8.10;90.10;;;;;;6252648;28;20050;-81
2023/11/24 03:02:35;;;;;;;4.90;4.45;;;8.10;90.10;;;;;;6252959;28;20516;-78
2023/11/24 03:05:37;;;;;;;6.80;3.88;;;8.10;90.30;;;;;;6252184;28;20060;-81
2023/11/24 03:08:40;;;;;;;4.75;3.83;;;8.10;90.30;;;;;;6249923;28;20060;-81
2023/11/24 03:11:42;;;;;;;5.85;4.47;;;8.10;90.40;;;;;;6250378;28;20049;-81
2023/11/24 03:14:44;;;;;;;6.50;3.83;;;8.10;90.40;;;;;;6250294;28;20124;-81
2023/11/24 03:17:46;;;;;;;8.65;5.43;;;8.10;90.50;;;;;;6250120;28;20049;-80
2023/11/24 03:20:49;;;;;;;6.00;4.40;;;8.10;90.50;;;;;;6250475;28;20041;-80
2023/11/24 03:23:52;;;;;;;7.93;5.68;;;8.10;90.50;;;;;;6251446;28;20514;-79
2023/11/24 03:26:54;;;;;;;7.65;5.40;;;8.00;90.60;;;;;;6250234;28;20494;-80
2023/11/24 03:29:56;;;;;;;6.68;4.45;;;8.00;90.60;;;;;;6248844;28;20511;-79
2023/11/24 03:32:58;;;;;;;6.13;4.38;;;8.00;90.70;;;;;;6250068;28;20390;-80
2023/11/24 03:36:00;;;;;;;6.63;4.45;;;8.00;90.80;;;;;;6250820;28;20617;-79
2023/11/24 03:39:03;;;;;;;6.63;5.00;;;8.00;90.90;;;;;;6250062;28;20046;-79
2023/11/24 03:42:05;;;;;;;8.98;5.38;;;8.00;90.90;;;;;;6249928;28;20048;-80
2023/11/24 03:45:08;;;;;;;12.50;5.65;;;8.00;90.90;;;;;;6250842;28;20045;-81
2023/11/24 03:48:10;;;;;;;6.72;5.45;;;8.00;91.10;;;;;;6249562;28;20045;-79
2023/11/24 03:51:12;;;;;;;8.20;5.50;;;8.00;91.10;;;;;;6250561;28;20048;-80
2023/11/24 03:54:15;;;;;;;8.35;5.13;;;8.00;91.20;;;;;;6250232;28;20059;-79
2023/11/24 03:57:18;;;;;;;6.18;5.07;;;8.00;91.30;;;;;;6249637;28;20041;-79
2023/11/24 04:00:21;;;;;;;7.43;4.85;;;8.00;91.30;;;;;;6251061;28;20430;-81
2023/11/24 04:03:23;;;;;;;6.53;5.20;;;8.00;91.30;;;;;;6250389;28;20046;-81
2023/11/24 04:06:24;;;;;;;7.18;6.15;;;8.10;91.40;;;;;;6249269;28;20041;-80
2023/11/24 04:09:27;;;;;;;5.72;4.90;;;8.10;91.40;;;;;;6249802;28;20049;-80
2023/11/24 04:12:29;;;;;;;5.30;4.47;;;8.10;91.40;;;;;;6250152;28;20060;-80
2023/11/24 04:15:31;;;;;;;6.55;3.72;;;8.10;91.40;;;;;;6253819;28;20056;-80
2023/11/24 04:18:32;;;;;;;4.05;3.03;;;8.10;91.50;;;;;;6237316;28;20400;-78
2023/11/24 04:21:35;;;;;;;7.15;3.60;;;8.20;91.50;;;;;;6242574;28;20054;-78
2023/11/24 04:24:39;;;;;;;5.95;4.43;;;8.20;91.50;;;;;;6234991;28;20053;-79
2023/11/24 04:27:40;;;;;;;6.00;4.00;;;8.20;91.50;;;;;;6245943;28;20550;-79
2023/11/24 04:30:42;;;;;;;4.35;3.47;;;8.20;91.50;;;;;;6254889;28;20061;-80
2023/11/24 04:33:44;;;;;;;6.65;4.13;;;8.20;91.60;;;;;;6256039;28;20056;-80
2023/11/24 04:36:46;;;;;;;6.15;4.32;;;8.30;91.60;;;;;;6241806;28;20049;-80
2023/11/24 04:39:49;;;;;;;6.07;3.67;;;8.30;91.60;;;;;;6244215;28;20499;-80
2023/11/24 04:42:51;;;;;;;4.60;3.78;;;8.20;91.60;;;;;;6253857;28;20421;-79
2023/11/24 04:45:53;;;;;;;4.75;3.40;;;8.30;91.70;;;;;;6254409;28;20041;-79
2023/11/24 04:48:56;;;;;;;5.32;4.38;;;8.30;91.70;;;;;;6253443;28;20037;-79
2023/11/24 04:51:59;;;;;;;3.10;2.63;;;8.30;91.70;;;;;;6254517;28;20054;-80
2023/11/24 04:55:03;;;;;;;4.88;3.65;;;8.20;91.70;;;;;;6253809;28;20051;-80
2023/11/24 04:58:05;;;;;;;4.03;3.55;;;8.20;91.70;;;;;;6245399;28;20774;-79
2023/11/24 05:01:07;;;;;;;3.75;3.33;;;8.20;91.70;;;;;;6244484;28;20473;-80
2023/11/24 05:04:09;;;;;;;5.03;3.72;;;8.20;91.80;;;;;;6253408;28;20137;-80
2023/11/24 05:07:11;;;;;;;4.07;3.13;;;8.30;91.90;;;;;;6238677;28;20050;-80
2023/11/24 05:10:14;;;;;;;7.97;5.95;;;8.30;91.90;;;;;;6253023;28;20048;-80
2023/11/24 05:13:15;;;;;;;5.95;3.30;;;8.30;91.90;;;;;;6245946;28;20423;-79
2023/11/24 05:16:17;;;;;;;4.78;3.20;;;8.30;91.90;;;;;;6246253;28;20521;-78
2023/11/24 05:19:19;;;;;;;6.57;3.28;;;8.30;91.90;;;;;;6244868;28;20045;-79
2023/11/24 05:22:21;;;;;;;4.00;2.92;;;8.30;91.90;;;;;;6253528;28;20045;-79
2023/11/24 05:25:24;;;;;;;4.38;3.22;;;8.30;91.90;;;;;;6242405;28;20042;-79
2023/11/24 05:28:25;;;;;;;4.00;2.90;;;8.30;91.90;;;;;;6239310;28;20504;-79
2023/11/24 05:31:27;;;;;;;3.38;2.60;;;8.30;92.00;;;;;;6250998;28;20446;-78
2023/11/24 05:34:29;;;;;;;5.90;3.63;;;8.30;92.00;;;;;;6248656;28;20399;-79
2023/11/24 05:37:30;;;;;;;4.95;4.45;;;8.30;92.00;;;;;;6250365;28;20072;-77
2023/11/24 05:40:33;;;;;;;6.03;4.40;;;8.30;92.00;;;;;;6250775;28;20304;-80
2023/11/24 05:43:35;;;;;;;6.22;3.42;;;8.30;92.00;;;;;;6246042;28;20470;-80
2023/11/24 05:46:37;;;;;;;5.90;4.32;;;8.30;92.10;;;;;;6253170;28;20478;-79
2023/11/24 05:49:40;;;;;;;6.47;4.18;;;8.40;92.10;;;;;;6253095;28;20425;-79
2023/11/24 05:52:43;;;;;;;5.80;3.72;;;8.30;92.00;;;;;;6253445;28;20046;-80
2023/11/24 05:55:46;;;;;;;4.22;3.63;;;8.30;92.00;;;;;;6248606;28;20109;-80
2023/11/24 05:58:48;;;;;;;7.43;4.15;;;8.30;92.00;;;;;;6250535;28;20045;-81
2023/11/24 06:01:50;;;;;;;4.63;3.42;;;8.30;92.00;;;;;;6240390;28;20100;-79
2023/11/24 06:04:51;;;;;;;3.80;2.80;;;8.20;91.90;;;;;;6247330;28;20045;-80
2023/11/24 06:07:54;;;;;;;3.85;2.40;;;8.20;92.00;;;;;;6247196;28;20060;-80
2023/11/24 06:10:57;;;;;;;4.88;2.22;;;8.10;92.00;;;;;;6252525;28;20107;-80
2023/11/24 06:13:58;;;;;;;8.15;2.92;;;8.10;92.10;;;;;;6252584;28;20504;-80
2023/11/24 06:17:02;;;;;;;3.45;2.50;;;8.10;92.20;;;;;;6250972;28;20522;-79
2023/11/24 06:20:05;;;;;;;3.38;3.05;;;8.10;92.20;;;;;;6248966;28;20056;-78
2023/11/24 06:23:06;;;;;;;4.57;2.45;;;8.10;92.20;;;;;;6249996;28;20051;-78
2023/11/24 06:26:10;;;;;;;8.00;3.28;;;8.10;92.30;;;;;;6250487;28;20049;-79
2023/11/24 06:29:12;;;;;;;4.15;2.80;;;8.10;92.30;;;;;;6240827;28;20044;-78
2023/11/24 06:32:14;;;;;;;5.43;2.78;;;8.10;92.30;;;;;;6249821;28;20052;-78
2023/11/24 06:35:16;;;;;;;3.60;2.53;;;8.10;92.30;;;;;;6249314;28;20052;-78
2023/11/24 06:38:17;;;;;;;3.65;2.10;;;8.10;92.30;;;;;;6248117;28;20045;-78
2023/11/24 06:41:21;;;;;;;7.03;2.45;;;8.10;92.40;;;;;;6249084;28;20051;-79
2023/11/24 06:44:25;;;;;;;3.65;1.73;;;8.10;92.40;;;;;;6250136;28;20052;-79
2023/11/24 06:47:27;;;;;;;2.92;1.83;;;8.10;92.50;;;;;;6248137;28;20045;-79
2023/11/24 06:50:29;;;;;;;4.00;2.55;;;8.20;92.50;;;;;;6248391;28;20065;-79
2023/11/24 06:53:31;;;;;;;6.10;1.92;;;8.20;92.50;;;;;;6249198;28;20056;-79
2023/11/24 06:56:34;;;;;;;2.22;1.60;;;8.20;92.50;;;;;;6248423;28;20045;-78
2023/11/24 06:59:35;;;;;;;3.67;2.10;;;8.20;92.40;;;;;;6248659;28;20037;-78
2023/11/24 07:02:38;;;;;;;4.07;2.03;;;8.20;92.50;;;;;;6248775;28;20530;-78
2023/11/24 07:05:41;;;;;;;4.28;1.98;;;8.20;92.50;;;;;;6247988;28;20045;-78
2023/11/24 07:08:43;;;;;;;4.35;2.17;;;8.20;92.50;;;;;;6247198;28;20056;-78
2023/11/24 07:11:47;;;;;;;2.45;1.65;;;8.20;92.80;;;;;;6248774;28;20451;-79
2023/11/24 07:14:48;;;;;;;8.43;2.47;;;8.20;92.60;;;;;;6247994;28;20180;-79
2023/11/24 07:17:50;;;;;;;5.18;2.83;;;8.20;92.50;;;;;;6247868;28;20045;-78
2023/11/24 07:20:52;;;;;;;10.15;3.20;;;8.10;92.50;;;;;;6248729;28;20063;-78
2023/11/24 07:23:54;;;;;;;7.38;2.92;;;8.10;92.40;;;;;;6248101;28;20072;-78
2023/11/24 07:26:59;;;;;;;9.80;3.85;;;8.00;92.30;;;;;;6247803;28;20474;-78
2023/11/24 07:30:01;;;;;;;6.05;3.00;;;7.90;92.30;;;;;;6247615;28;20521;-78
2023/11/24 07:33:02;;;;;;;9.02;4.07;;;7.90;92.50;;;;;;6247642;28;20415;-78
2023/11/24 07:36:06;;;;;;;8.48;3.05;;;7.90;92.70;;;;;;6248077;28;20050;-78
2023/11/24 07:39:10;;;;;;;11.60;5.82;;;8.00;92.80;;;;;;6248161;28;20040;-78
2023/11/24 07:42:13;;;;;;;5.70;3.60;;;8.00;92.70;;;;;;6247606;28;20065;-78
2023/11/24 07:45:15;;;;;;;8.15;5.05;;;8.00;92.70;;;;;;6239135;28;20049;-78
2023/11/24 07:48:17;;;;;;;12.63;5.07;;;8.10;92.70;;;;;;6247551;28;20422;-78
2023/11/24 07:51:19;;;;;;;5.95;3.83;;;8.00;92.70;;;;;;6271701;22;20140;-78
2023/11/24 07:54:21;;;;;;;9.25;3.90;;;8.10;92.80;;;;;;6242114;28;20409;-79
2023/11/24 07:57:25;;;;;;;9.77;3.42;;;8.10;92.90;;;;;;6242500;28;20394;-79
2023/11/24 08:00:26;;;;;;;6.13;4.10;;;8.20;92.90;;;;;;6242124;28;20108;-79
2023/11/24 08:03:29;;;;;;;5.43;3.47;;;8.10;92.70;;;;;;6249684;28;20077;-78
2023/11/24 08:06:31;;;;;;;6.13;3.00;;;8.10;92.80;;;;;;6240839;28;20049;-80
2023/11/24 08:09:33;;;;;;;7.10;3.63;;;8.10;92.70;;;;;;6200429;28;20045;-79
2023/11/24 08:12:36;;;;;;;9.23;3.88;;;8.10;92.70;;;;;;6225257;28;20113;-79
2023/11/24 08:15:38;;;;;;;5.97;4.18;;;8.10;92.70;;;;;;6230216;28;20053;-80
2023/11/24 08:18:39;;;;;;;9.25;3.78;;;8.10;92.80;;;;;;6220049;28;20466;-78
2023/11/24 08:21:41;;;;;;;6.75;2.90;;;8.10;92.90;;;;;;6230966;28;20046;-77
2023/11/24 08:24:43;;;;;;;10.02;3.25;;;8.20;93.00;;;;;;6229506;28;20503;-79
2023/11/24 08:27:46;;;;;;;8.80;3.67;;;8.20;93.00;;;;;;6222481;28;20499;-79
2023/11/24 08:30:49;;;;;;;8.63;3.55;;;8.30;93.00;;;;;;6227406;28;20050;-80
2023/11/24 08:33:50;;;;;;;8.05;4.32;;;8.40;92.90;;;;;;6228979;28;20054;-79
2023/11/24 08:36:52;;;;;;;14.23;3.78;;;8.40;92.90;;;;;;6226021;28;20503;-78
2023/11/24 08:39:54;;;;;;;10.13;3.42;;;8.50;92.80;;;;;;6224314;28;20410;-79
2023/11/24 08:42:58;;;;;;;18.00;8.25;;;8.50;92.80;;;;;;6226082;28;20131;-78
2023/11/24 08:45:59;;;;;;;12.00;4.03;;;8.60;92.80;;;;;;6225232;28;20050;-79
2023/11/24 08:49:01;;;;;;;9.63;3.60;;;8.60;92.80;;;;;;6231827;28;20038;-80
2023/11/24 08:52:04;;;;;;;15.77;5.70;;;8.70;92.70;;;;;;6243788;28;20560;-80
2023/11/24 08:55:07;;;;;;;12.73;4.38;;;8.70;92.60;;;;;;6232646;28;20046;-79
2023/11/24 08:58:10;;;;;;;16.10;4.60;;;8.70;92.60;;;;;;6238864;28;20045;-81
2023/11/24 09:01:13;;;;;;;11.88;3.90;;;8.70;92.60;;;;;;6226224;28;20042;-79
2023/11/24 09:04:14;;;;;;;20.73;4.70;;;8.90;92.60;;;;;;6228364;28;20046;-79
2023/11/24 09:07:16;;;;;;;10.70;4.00;;;8.90;92.50;;;;;;6236685;28;20270;-79
2023/11/24 09:10:19;;;;;;;10.27;4.32;;;8.90;92.30;;;;;;6229734;28;20045;-78
2023/11/24 09:13:22;;;;;;;11.20;4.75;;;8.90;92.20;;;;;;6220271;28;20491;-78
2023/11/24 09:16:23;;;;;;;14.40;4.00;;;8.90;92.10;;;;;;6236230;28;20147;-78
2023/11/24 09:19:25;;;;;;;11.15;3.83;;;9.00;92.00;;;;;;6244621;28;20041;-79
2023/11/24 09:22:27;;;;;;;22.67;3.97;;;9.00;91.70;;;;;;6227087;28;20069;-80
2023/11/24 09:25:28;;;;;;;18.02;5.55;;;9.00;92.00;;;;;;6227162;28;20054;-80
2023/11/24 09:28:31;;;;;;;23.33;6.60;;;9.20;92.00;;;;;;6238969;28;20053;-79
2023/11/24 09:31:35;;;;;;;10.23;4.47;;;9.30;92.00;;;;;;6233389;28;20049;-79
2023/11/24 09:34:37;;;;;;;15.68;4.00;;;9.40;91.90;;;;;;6230811;28;20071;-79
2023/11/24 09:37:38;;;;;;;13.15;4.55;;;9.40;91.30;;;;;;6229060;28;20057;-80
2023/11/24 09:40:40;;;;;;;18.02;3.72;;;9.50;91.20;;;;;;6229070;28;20052;-79
2023/11/24 09:43:43;;;;;;;10.93;3.60;;;9.50;91.10;;;;;;6229281;28;20060;-81
2023/11/24 09:46:46;;;;;;;14.95;4.70;;;9.50;91.10;;;;;;6230998;28;20045;-79
2023/11/24 09:49:49;;;;;;;7.47;3.00;;;9.60;91.30;;;;;;6224660;28;20394;-79
2023/11/24 09:52:54;;;;;;;8.60;3.08;;;9.80;91.00;;;;;;6225769;28;20045;-80
2023/11/24 09:55:56;;;;;;;13.70;5.05;;;9.90;91.00;;;;;;6225676;28;20049;-80
2023/11/24 09:58:59;;;;;;;7.70;3.53;;;10.20;91.10;;;;;;6226161;28;20506;-79
2023/11/24 10:02:03;;;;;;;13.68;4.28;;;10.30;90.90;;;;;;6228422;28;20511;-81
2023/11/24 10:05:06;;;;;;;21.23;4.95;;;10.20;90.00;;;;;;6231432;28;20053;-77
2023/11/24 10:08:08;;;;;;;17.30;2.88;;;10.20;89.50;;;;;;6226175;28;20132;-79
2023/11/24 10:11:12;;;;;;;11.90;3.83;;;10.20;89.30;;;;;;6226204;28;21372;-79
2023/11/24 10:14:15;;;;;;;21.38;5.50;;;10.10;88.30;;;;;;6227788;28;20041;-78
2023/11/24 10:17:17;;;;;;;14.43;4.10;;;10.10;88.00;;;;;;6228851;28;20045;-80
2023/11/24 10:20:22;;;;;;;21.80;7.85;;;10.20;87.30;;;;;;6226086;28;20046;-79
2023/11/24 10:23:24;;;;;;;9.65;3.47;;;10.20;87.00;;;;;;6221468;28;20053;-79
2023/11/24 10:26:26;;;;;;;12.23;3.80;;;10.30;86.10;;;;;;6226597;28;20064;-79
2023/11/24 10:29:30;;;;;;;10.80;3.72;;;10.20;85.70;;;;;;6225695;28;20057;-80
2023/11/24 10:32:32;;;;;;;12.25;3.90;;;10.20;86.20;;;;;;6226277;28;20510;-81
2023/11/24 10:35:34;;;;;;;15.75;5.47;;;10.10;85.50;;;;;;6241241;28;20061;-80
2023/11/24 10:38:40;;;;;;;15.23;3.53;;;10.00;86.50;;;;;;6221828;28;78684;-80
2023/11/24 10:41:43;;;;;;;14.90;6.45;;;10.00;86.50;;;;;;6219953;28;20117;-79
2023/11/24 10:44:56;;;;;;;14.18;3.47;;;9.90;86.50;;;;;;6221652;28;20065;-78
2023/11/24 10:48:05;;;;;;;19.20;6.50;;;9.90;86.50;;;;;;6219983;28;20050;-79
2023/11/24 10:51:17;;;;;;;8.60;3.65;;;9.80;86.30;;;;;;6219247;28;20038;-78
2023/11/24 10:54:25;;;;;;;12.10;3.20;;;9.70;86.10;;;;;;6221492;28;20053;-78
2023/11/24 10:57:31;;;;;;;15.63;5.25;;;9.60;85.70;;;;;;6227151;28;20143;-78
2023/11/24 11:00:36;;;;;;;9.05;2.70;;;9.60;86.30;;;;;;6219842;28;20052;-80
2023/11/24 11:03:38;;;;;;;11.48;3.22;;;9.60;86.30;;;;;;6222373;28;20150;-76
2023/11/24 11:06:48;;;;;;;12.43;3.63;;;9.50;86.60;;;;;;6223423;28;20041;-76
2023/11/24 11:09:58;;;;;;;14.77;3.80;;;9.50;86.40;;;;;;6218780;28;20517;-78
2023/11/24 11:13:01;;;;;;;13.98;4.03;;;9.50;87.00;;;;;;6233211;28;20129;-78
2023/11/24 11:16:05;;;;;;;14.77;4.07;;;9.50;86.60;;;;;;6211862;28;20053;-79
2023/11/24 11:19:28;;;;;;;7.85;5.35;;;9.50;86.60;;;;;;6203587;28;20038;-77
2023/11/24 11:22:36;;;;;;;9.50;3.60;;;9.50;85.80;;;;;;6205307;28;20046;-78
2023/11/24 11:25:42;;;;;;;11.50;4.72;;;9.40;85.80;;;;;;6210753;28;20136;-78
2023/11/24 11:28:45;;;;;;;11.52;4.45;;;9.40;85.70;;;;;;6199046;28;20050;-78
2023/11/24 11:31:51;;;;;;;10.55;5.15;;;9.30;85.80;;;;;;6221588;28;20070;-78
2023/11/24 11:34:53;;;;;;;13.05;3.22;;;9.30;86.20;;;;;;6221590;28;20037;-77
2023/11/24 11:37:59;;;;;;;15.95;3.42;;;9.30;86.10;;;;;;6209312;28;20048;-77
2023/11/24 11:41:01;;;;;;;11.90;3.92;;;9.20;86.00;;;;;;6217149;28;20046;-77
2023/11/24 11:44:17;;;;;;;13.60;4.78;;;9.00;86.20;;;;;;6217394;28;20054;-77
2023/11/24 11:47:22;;;;;;;13.75;3.78;;;8.80;86.60;;;;;;6211259;28;20525;-77
2023/11/24 11:50:25;;;;;;;19.65;6.85;;;8.70;87.40;;;;;;6212369;28;20045;-78
2023/11/24 11:53:29;;;;;;;23.63;8.55;;;8.70;87.90;;;;;;6196495;28;20047;-78
2023/11/24 11:56:30;;;;;;;18.17;6.60;;;8.70;88.90;;;;;;6213031;28;20056;-78
2023/11/24 11:59:32;;;;;;;19.30;6.57;;;8.70;88.50;;;;;;6205293;28;20054;-80
2023/11/24 12:02:36;;;;;;;18.70;5.97;;;8.80;89.00;;;;;;6207877;28;20053;-78
2023/11/24 12:05:38;;;;;;;16.98;4.97;;;8.80;89.20;;;;;;6220598;28;20054;-77
2023/11/24 12:08:40;;;;;;;11.98;3.00;;;8.80;89.30;;;;;;6202941;28;20050;-77
2023/11/24 12:11:41;;;;;;;13.95;3.65;;;8.90;89.40;;;;;;6223447;28;20054;-77
2023/11/24 12:14:43;;;;;;;9.80;2.47;;;8.70;88.80;;;;;;6218899;28;20046;-77
2023/11/24 12:17:48;;;;;;;4.60;1.95;;;8.40;88.30;;;;;;6198379;28;20130;-78
2023/11/24 12:20:50;;;;;;;7.70;2.85;;;8.10;88.10;;;;;;6220361;28;20048;-77
2023/11/24 12:23:52;;;;;;;5.10;2.38;;;7.70;88.40;;;;;;6209816;28;20051;-77
2023/11/24 12:26:56;;;;;;;5.28;3.08;;;7.50;88.80;;;;;;6211991;28;20647;-77
2023/11/24 12:30:03;;;;;;;7.65;2.65;;;7.30;89.20;;;;;;6205866;28;20415;-77
2023/11/24 12:33:06;;;;;;;11.93;1.98;;;7.20;90.00;;;;;;6199361;28;20380;-78
2023/11/24 12:36:09;;;;;;;7.03;2.85;;;7.30;90.30;;;;;;6208671;28;20049;-78
2023/11/24 12:39:13;;;;;;;5.60;2.08;;;7.30;90.40;;;;;;6227102;28;20415;-78
2023/11/24 12:42:17;;;;;;;5.63;2.95;;;7.40;90.60;;;;;;6231464;28;20073;-77
2023/11/24 12:45:19;;;;;;;10.00;2.38;;;7.50;91.10;;;;;;6210580;28;20054;-77
2023/11/24 12:48:24;;;;;;;12.43;4.18;;;7.50;90.80;;;;;;6221078;28;20270;-77
2023/11/24 12:51:25;;;;;;;15.57;4.30;;;7.60;90.90;;;;;;6217198;28;20458;-77
2023/11/24 12:54:28;;;;;;;11.63;3.55;;;7.70;91.00;;;;;;6217789;28;20419;-79
2023/11/24 12:57:30;;;;;;;15.75;7.95;;;7.70;91.00;;;;;;6208835;28;20057;-77
2023/11/24 13:00:32;;;;;;;28.38;14.20;;;7.80;91.00;;;;;;6200050;28;20407;-79
2023/11/24 13:03:36;;;;;;;26.00;11.45;;;7.80;91.20;;;;;;6203026;28;20065;-77
2023/11/24 13:06:38;;;;;;;14.77;5.85;;;7.90;91.20;;;;;;6222994;28;20046;-78
2023/11/24 13:09:40;;;;;;;16.08;3.97;;;8.00;91.30;;;;;;6222923;28;20164;-79
2023/11/24 13:12:42;;;;;;;17.17;5.15;;;8.10;91.30;;;;;;6222709;28;20034;-78
2023/11/24 13:15:44;;;;;;;10.18;4.22;;;8.20;91.30;;;;;;6224174;28;20053;-78
2023/11/24 13:18:47;;;;;;;9.95;4.18;;;8.20;91.10;;;;;;6222663;28;20065;-78
2023/11/24 13:21:50;;;;;;;12.63;5.85;;;8.20;91.00;;;;;;6221232;28;20057;-80
2023/11/24 13:24:53;;;;;;;16.13;5.43;;;8.30;91.00;;;;;;6228573;28;20042;-77
2023/11/24 13:27:54;;;;;;;10.38;3.08;;;8.30;90.90;;;;;;6236787;28;20049;-78
2023/11/24 13:30:56;;;;;;;10.02;6.15;;;8.30;90.80;;;;;;6204138;28;20038;-79
2023/11/24 13:33:59;;;;;;;21.85;13.40;;;8.40;90.70;;;;;;6216458;28;20038;-78
2023/11/24 13:37:01;;;;;;;14.05;8.43;;;8.40;90.50;;;;;;6199639;28;20185;-81
2023/11/24 13:40:04;;;;;;;15.82;8.23;;;8.30;90.40;;;;;;6223753;28;20141;-79
2023/11/24 13:43:06;;;;;;;16.67;10.02;;;8.30;90.20;;;;;;6223980;28;20049;-78
2023/11/24 13:46:08;;;;;;;17.98;11.63;;;8.20;90.10;;;;;;6223056;28;20046;-76
2023/11/24 13:49:14;;;;;;;16.63;11.55;;;8.20;90.10;;;;;;6222203;28;20052;-78
2023/11/24 13:52:16;;;;;;;10.07;5.85;;;8.20;89.50;;;;;;6223008;28;20068;-78
2023/11/24 13:55:18;;;;;;;9.90;3.22;;;8.30;89.60;;;;;;6257574;22;20483;-79
2023/11/24 13:58:19;;;;;;;13.23;4.68;;;8.40;88.80;;;;;;6259239;28;20037;-80
2023/11/24 14:01:21;;;;;;;14.95;6.70;;;8.30;88.50;;;;;;6268083;28;20094;-80
2023/11/24 14:04:25;;;;;;;12.57;6.68;;;8.30;88.40;;;;;;6247548;28;20052;-83
2023/11/24 14:07:27;;;;;;;17.38;8.35;;;8.30;88.40;;;;;;6229664;28;20196;-79
2023/11/24 14:10:29;;;;;;;49.60;36.03;;;8.60;88.80;;;;;;6232596;28;20054;-80
2023/11/24 14:13:30;;;;;;;19.35;15.35;;;8.80;89.00;;;;;;6230074;28;20167;-80
2023/11/24 14:16:32;;;;;;;18.15;9.30;;;9.30;89.50;;;;;;6234499;28;20064;-81
2023/11/24 14:19:36;;;;;;;16.10;6.75;;;9.70;89.30;;;;;;6231693;28;20058;-79
2023/11/24 14:22:38;;;;;;;8.80;3.58;;;9.80;89.10;;;;;;6242013;28;20052;-78
2023/11/24 14:25:40;;;;;;;8.25;3.92;;;9.90;88.50;;;;;;6218745;28;20414;-79
2023/11/24 14:28:42;;;;;;;9.07;2.85;;;9.90;88.00;;;;;;6226403;28;20045;-81
2023/11/24 14:31:47;;;;;;;4.97;2.20;;;9.90;87.40;;;;;;6229353;28;20053;-79
2023/11/24 14:34:50;;;;;;;5.00;2.35;;;10.00;86.90;;;;;;6231107;28;20053;-78
2023/11/24 14:37:52;;;;;;;6.88;3.80;;;9.80;85.10;;;;;;6229917;28;20543;-79
2023/11/24 14:40:54;;;;;;;52.67;22.80;;;9.60;84.90;;;;;;6228307;28;20037;-81
2023/11/24 14:43:56;;;;;;;1.50;0.80;;;9.40;84.70;;;;;;6236483;28;20490;-80
2023/11/24 14:46:57;;;;;;;3.17;1.38;;;9.00;83.40;;;;;;6233334;28;20045;-79
2023/11/24 14:50:04;;;;;;;4.43;2.63;;;8.10;81.80;;;;;;6231337;28;20061;-79
2023/11/24 14:53:06;;;;;;;2.42;1.15;;;7.30;82.60;;;;;;6235038;28;20041;-80
2023/11/24 14:56:09;;;;;;;2.65;2.10;;;6.70;83.60;;;;;;6231719;28;20056;-80
2023/11/24 14:59:10;;;;;;;1.33;1.05;;;6.20;84.40;;;;;;6233465;28;20049;-78
2023/11/24 15:02:16;;;;;;;2.22;1.00;;;5.80;85.10;;;;;;6236731;28;20508;-79
2023/11/24 15:05:19;;;;;;;1.23;1.10;;;5.50;85.80;;;;;;6241931;28;20117;-79
2023/11/24 15:08:21;;;;;;;4.38;3.08;;;5.30;86.60;;;;;;6238549;28;20041;-78
2023/11/24 15:11:33;;;;;;;5.60;3.85;;;5.10;87.30;;;;;;6228322;28;20658;-79
2023/11/24 15:14:36;;;;;;;2.67;2.47;;;5.00;87.90;;;;;;6227395;28;20242;-77
2023/11/24 15:17:38;;;;;;;4.18;2.58;;;4.90;88.50;;;;;;6239469;28;20124;-79
2023/11/24 15:20:43;;;;;;;3.72;2.50;;;4.80;89.00;;;;;;6240054;28;20136;-79
2023/11/24 15:23:45;;;;;;;2.80;1.70;;;4.70;89.50;;;;;;6230935;28;20062;-79
2023/11/24 15:26:47;;;;;;;4.15;1.40;;;4.70;89.80;;;;;;6224267;28;20179;-78
2023/11/24 15:29:49;;;;;;;4.30;1.73;;;4.70;90.10;;;;;;6227844;28;20053;-78
2023/11/24 15:32:53;;;;;;;9.48;2.60;;;4.70;90.30;;;;;;6227038;28;20176;-78
2023/11/24 15:35:56;;;;;;;3.67;1.52;;;4.80;90.50;;;;;;6240853;28;20073;-79
2023/11/24 15:38:58;;;;;;;2.30;1.30;;;4.80;90.60;;;;;;6240256;28;20056;-78
2023/11/24 15:42:01;;;;;;;1.65;1.00;;;4.80;90.70;;;;;;6234209;28;20438;-79
2023/11/24 15:45:02;;;;;;;5.25;4.85;;;5.00;91.00;;;;;;6226510;28;20041;-79
2023/11/24 15:48:07;;;;;;;7.70;4.38;;;5.00;90.90;;;;;;6248900;28;20061;-78
2023/11/24 15:51:17;;;;;;;5.45;4.10;;;5.00;90.80;;;;;;6224028;28;20042;-78
2023/11/24 15:54:20;;;;;;;3.55;1.67;;;4.80;90.70;;;;;;6245125;28;20049;-78
2023/11/24 15:57:22;;;;;;;4.45;3.03;;;4.70;90.80;;;;;;6248687;28;20042;-77